Time;durP1;ratioP1;P1;durP2;ratioP2;P2;SDS_P1;SDS_P2;PMS_P1;PMS_P2;Temp;Humidity;BMP_temperature;BMP_pressure;BME280_temperature;BME280_humidity;BME280_pressure;Samples;Min_cycle;Max_cycle;Signal;HPM_P1;HPM_P2
2021/01/18 00:00:52;;;;;;;106.20;46.28;;;39.00;2201.60;;;;;;4961774;28;20126;-76
2021/01/18 00:03:18;;;;;;;57.65;31.48;;;39.00;2201.60;;;;;;4961742;28;20050;-77
2021/01/18 00:05:44;;;;;;;53.40;31.50;;;39.00;2201.60;;;;;;4954834;28;20047;-76
2021/01/18 00:08:10;;;;;;;85.55;43.60;;;39.00;2201.60;;;;;;4962884;28;20027;-77
2021/01/18 00:10:35;;;;;;;114.72;55.20;;;39.00;2201.60;;;;;;4960312;28;20386;-77
2021/01/18 00:13:01;;;;;;;74.85;41.58;;;39.10;2201.60;;;;;;4978828;28;20086;-76
2021/01/18 00:15:27;;;;;;;84.10;43.22;;;39.30;2201.60;;;;;;4959824;28;20079;-77
2021/01/18 00:17:55;;;;;;;142.80;61.95;;;39.10;2201.60;;;;;;4944810;29;20042;-78
2021/01/18 00:20:22;;;;;;;82.15;39.85;;;39.00;2201.60;;;;;;4944570;29;20031;-77
2021/01/18 00:22:48;;;;;;;88.05;41.10;;;39.10;2201.60;;;;;;4944205;29;20098;-76
2021/01/18 00:25:21;;;;;;;66.28;37.75;;;39.00;2201.60;;;;;;4945576;29;20031;-77
2021/01/18 00:27:48;;;;;;;82.57;45.83;;;39.00;2201.60;;;;;;4938368;29;20027;-77
2021/01/18 00:30:17;;;;;;;114.18;57.83;;;39.10;2201.60;;;;;;4944968;29;20498;-77
2021/01/18 00:32:43;;;;;;;171.95;83.10;;;39.20;2201.60;;;;;;4942906;29;20446;-78
2021/01/18 00:35:11;;;;;;;86.95;46.85;;;39.10;2201.60;;;;;;4943381;29;20031;-77
2021/01/18 00:37:47;;;;;;;71.35;40.42;;;39.00;2201.60;;;;;;4943782;29;20042;-77
2021/01/18 00:40:15;;;;;;;58.15;31.65;;;39.10;2201.60;;;;;;4944189;29;20368;-77
2021/01/18 00:42:43;;;;;;;69.70;37.83;;;39.00;2201.60;;;;;;4944999;29;20039;-77
2021/01/18 00:45:10;;;;;;;89.18;47.03;;;39.10;2201.60;;;;;;4944497;29;20027;-77
2021/01/18 00:47:53;;;;;;;97.82;53.58;;;39.10;2201.60;;;;;;4944569;29;20059;-78
2021/01/18 00:50:24;;;;;;;158.90;66.53;;;39.10;2201.60;;;;;;4945758;29;20027;-76
2021/01/18 00:52:53;;;;;;;105.07;53.40;;;39.20;2201.60;;;;;;4944537;29;20032;-76
2021/01/18 00:55:20;;;;;;;82.30;47.40;;;39.10;2201.60;;;;;;4944571;29;20027;-76
2021/01/18 00:57:47;;;;;;;86.10;44.95;;;39.10;2201.60;;;;;;4945426;29;20468;-76
2021/01/18 01:00:21;;;;;;;86.35;45.65;;;64.20;2201.60;;;;;;4948145;29;20035;-76
2021/01/18 01:02:49;;;;;;;67.30;38.35;;;39.20;2201.60;;;;;;4949984;29;20452;-78
2021/01/18 01:05:24;;;;;;;54.78;30.15;;;39.20;2201.60;;;;;;4948845;29;20042;-76
2021/01/18 01:07:52;;;;;;;71.35;35.67;;;39.20;2201.60;;;;;;4949302;29;20126;-78
2021/01/18 01:10:26;;;;;;;85.65;39.53;;;39.30;2201.60;;;;;;4949271;29;20031;-76
2021/01/18 01:13:00;;;;;;;75.25;43.97;;;39.30;2201.60;;;;;;4949405;29;20518;-77
2021/01/18 01:15:27;;;;;;;68.22;40.00;;;64.10;2201.60;;;;;;4950618;29;20040;-76
2021/01/18 01:17:53;;;;;;;63.80;35.92;;;64.20;2201.60;;;;;;4949509;29;20039;-77
2021/01/18 01:20:21;;;;;;;80.07;43.80;;;64.20;2201.60;;;;;;4949636;29;20060;-78
2021/01/18 01:22:47;;;;;;;86.80;46.45;;;64.00;2201.60;;;;;;4950388;29;20032;-78
2021/01/18 01:25:15;;;;;;;120.70;61.55;;;64.10;2201.60;;;;;;4950273;29;20464;-77
2021/01/18 01:27:41;;;;;;;72.72;39.75;;;64.00;2201.60;;;;;;4950543;29;20031;-77
2021/01/18 01:30:13;;;;;;;84.43;46.15;;;39.10;2201.60;;;;;;4950959;29;20593;-76
2021/01/18 01:32:40;;;;;;;79.78;46.42;;;64.00;2201.60;;;;;;4950810;29;20027;-77
2021/01/18 01:35:09;;;;;;;64.53;36.08;;;64.00;2201.60;;;;;;4950294;29;20049;-77
2021/01/18 01:37:36;;;;;;;64.78;38.67;;;64.10;2201.60;;;;;;4950244;29;20038;-77
2021/01/18 01:40:03;;;;;;;91.55;59.30;;;64.20;2201.60;;;;;;4951024;29;20036;-79
2021/01/18 01:42:29;;;;;;;79.32;49.83;;;64.20;2201.60;;;;;;4950491;29;20035;-77
2021/01/18 01:44:54;;;;;;;86.20;50.08;;;64.20;2201.60;;;;;;4950356;29;20030;-78
2021/01/18 01:47:31;;;;;;;83.25;49.67;;;64.10;2201.60;;;;;;4966901;28;20034;-77
2021/01/18 01:49:58;;;;;;;85.55;42.92;;;64.00;2201.60;;;;;;4967827;28;20031;-75
2021/01/18 01:52:26;;;;;;;87.32;39.72;;;64.00;2201.60;;;;;;4968908;28;20126;-76
2021/01/18 01:54:56;;;;;;;104.28;45.08;;;64.00;2201.60;;;;;;4968308;28;20019;-75
2021/01/18 01:57:23;;;;;;;107.30;50.33;;;39.30;2201.60;;;;;;4968675;28;20154;-76
2021/01/18 01:59:50;;;;;;;150.98;64.95;;;39.30;2201.60;;;;;;4969163;28;20104;-76
2021/01/18 02:02:16;;;;;;;114.55;54.40;;;39.30;2201.60;;;;;;4967686;28;20098;-76
2021/01/18 02:04:42;;;;;;;75.65;38.88;;;39.30;2201.60;;;;;;4969015;28;20074;-78
2021/01/18 02:07:22;;;;;;;72.60;35.38;;;39.30;2201.60;;;;;;4968795;28;20478;-76
2021/01/18 02:09:48;;;;;;;37.75;20.75;;;39.30;2201.60;;;;;;4971850;28;20455;-78
2021/01/18 02:12:15;;;;;;;46.47;23.17;;;64.00;2201.60;;;;;;4972449;28;20101;-78
2021/01/18 02:15:05;;;;;;;32.58;17.65;;;64.00;2201.60;;;;;;4968296;28;20031;-76
2021/01/18 02:17:46;;;;;;;29.08;16.02;;;64.10;2201.60;;;;;;4961019;29;20460;-78
2021/01/18 02:20:50;;;;;;;51.05;23.63;;;64.20;2201.60;;;;;;4946000;29;20119;-76
2021/01/18 02:23:34;;;;;;;44.70;22.00;;;64.10;2201.60;;;;;;4946197;29;20050;-76
2021/01/18 02:26:14;;;;;;;44.17;21.20;;;64.20;2201.60;;;;;;4948180;29;20031;-77
2021/01/18 02:29:28;;;;;;;27.48;15.20;;;64.30;2201.60;;;;;;4965913;29;20031;-79
2021/01/18 02:32:18;;;;;;;;;;;64.40;2201.60;;;;;;4932213;29;20039;-76
2021/01/18 02:34:54;;;;;;;27.88;15.73;;;64.40;2201.60;;;;;;4945847;29;19906;-77
2021/01/18 02:37:42;;;;;;;36.60;19.13;;;64.40;2201.60;;;;;;4943274;29;20090;-78
2021/01/18 02:40:23;;;;;;;38.70;21.08;;;64.30;2201.60;;;;;;4945671;29;20042;-75
2021/01/18 02:43:01;;;;;;;30.08;16.55;;;64.30;2201.60;;;;;;4944751;29;20028;-78
2021/01/18 02:45:28;;;;;;;30.05;17.02;;;64.30;2201.60;;;;;;4944596;29;20102;-76
2021/01/18 02:47:54;;;;;;;33.80;19.85;;;64.30;2201.60;;;;;;4945317;29;20032;-77
2021/01/18 02:50:20;;;;;;;36.50;20.50;;;64.30;2201.60;;;;;;4944922;29;20027;-77
2021/01/18 02:52:46;;;;;;;65.72;35.22;;;64.30;2201.60;;;;;;4945026;29;20031;-78
2021/01/18 02:55:16;;;;;;;66.13;34.05;;;64.30;2201.60;;;;;;4944963;29;20071;-77
2021/01/18 02:57:44;;;;;;;63.53;34.35;;;64.30;2201.60;;;;;;4946383;29;20432;-78
2021/01/18 03:00:17;;;;;;;61.13;31.60;;;64.30;2201.60;;;;;;4946436;28;20027;-76
2021/01/18 03:02:58;;;;;;;70.93;33.17;;;64.30;2201.60;;;;;;4965479;28;20031;-78
2021/01/18 03:05:30;;;;;;;64.55;32.88;;;64.40;2201.60;;;;;;4964284;28;20391;-76
2021/01/18 03:08:10;;;;;;;63.85;32.85;;;64.30;2201.60;;;;;;4965427;28;20053;-77
2021/01/18 03:11:01;;;;;;;63.95;39.58;;;64.30;2201.60;;;;;;4964705;28;20037;-77
2021/01/18 03:13:35;;;;;;;46.72;28.10;;;64.30;2201.60;;;;;;4963915;28;20131;-76
2021/01/18 03:16:08;;;;;;;40.30;24.05;;;64.50;2201.60;;;;;;4963774;28;20042;-77
2021/01/18 03:18:34;;;;;;;57.30;32.28;;;64.40;2201.60;;;;;;4965594;28;20130;-77
2021/01/18 03:21:02;;;;;;;40.88;23.75;;;64.40;2201.60;;;;;;4965016;28;20042;-76
2021/01/18 03:23:29;;;;;;;47.28;27.20;;;39.20;2201.60;;;;;;4964380;28;20035;-77
2021/01/18 03:25:56;;;;;;;101.20;53.03;;;64.60;2201.60;;;;;;4964101;28;20027;-77
2021/01/18 03:28:23;;;;;;;92.75;50.83;;;64.60;2201.60;;;;;;4963955;28;20073;-76
2021/01/18 03:30:50;;;;;;;71.75;41.00;;;64.50;2201.60;;;;;;4964251;28;20026;-77
2021/01/18 03:33:17;;;;;;;73.72;39.40;;;64.20;2201.60;;;;;;4964599;28;20034;-77
2021/01/18 03:35:43;;;;;;;80.47;44.92;;;64.50;2201.60;;;;;;4964869;28;20058;-77
2021/01/18 03:38:10;;;;;;;60.45;35.67;;;64.60;2201.60;;;;;;4965260;28;20042;-77
2021/01/18 03:40:37;;;;;;;60.50;33.80;;;64.80;2201.60;;;;;;4965163;28;20031;-77
2021/01/18 03:43:05;;;;;;;69.75;41.10;;;64.80;2201.60;;;;;;4965286;28;20033;-77
2021/01/18 03:45:34;;;;;;;69.03;39.00;;;64.90;2201.60;;;;;;4964970;28;20533;-77
2021/01/18 03:48:00;;;;;;;66.90;36.53;;;64.80;2201.60;;;;;;4964601;28;20034;-76
2021/01/18 03:50:26;;;;;;;68.95;37.53;;;64.80;2201.60;;;;;;4963862;28;20035;-77
2021/01/18 03:52:53;;;;;;;68.75;37.22;;;64.90;2201.60;;;;;;4964329;28;20034;-77
2021/01/18 03:55:20;;;;;;;77.90;40.58;;;89.60;2201.60;;;;;;4963979;28;20062;-78
2021/01/18 03:57:49;;;;;;;78.63;40.00;;;89.60;2201.60;;;;;;4962059;28;20035;-77
2021/01/18 04:00:17;;;;;;;105.15;52.30;;;89.70;2176.00;;;;;;4962884;28;20054;-77
2021/01/18 04:02:45;;;;;;;121.07;63.10;;;89.70;2176.00;;;;;;4962277;28;20379;-78
2021/01/18 04:05:12;;;;;;;76.75;37.20;;;89.60;2201.60;;;;;;4962822;28;20031;-77
2021/01/18 04:07:38;;;;;;;76.05;39.05;;;89.60;2201.60;;;;;;4962155;28;20050;-76
2021/01/18 04:10:04;;;;;;;87.28;43.97;;;89.80;2176.00;;;;;;4962056;28;20022;-77
2021/01/18 04:12:30;;;;;;;82.60;43.53;;;90.00;2176.00;;;;;;4962061;28;20050;-76
2021/01/18 04:14:56;;;;;;;71.70;36.65;;;90.00;2176.00;;;;;;4962736;28;20090;-76
2021/01/18 04:17:22;;;;;;;69.05;34.30;;;90.10;2176.00;;;;;;4961924;28;20069;-76
2021/01/18 04:19:47;;;;;;;84.25;43.95;;;90.20;2176.00;;;;;;4962564;28;20038;-77
2021/01/18 04:22:13;;;;;;;183.95;80.60;;;90.20;2176.00;;;;;;4961963;28;20034;-77
2021/01/18 04:24:39;;;;;;;155.50;65.70;;;90.10;2176.00;;;;;;4962689;28;20044;-77
2021/01/18 04:27:07;;;;;;;143.32;67.68;;;90.00;2176.00;;;;;;4961805;28;20027;-77
2021/01/18 04:29:33;;;;;;;131.63;63.53;;;89.80;2176.00;;;;;;4961167;28;20030;-77
2021/01/18 04:31:59;;;;;;;136.55;66.00;;;89.70;2176.00;;;;;;4962282;28;20023;-77
2021/01/18 04:34:25;;;;;;;129.82;66.85;;;89.80;2176.00;;;;;;4962081;28;20023;-76
2021/01/18 04:36:51;;;;;;;103.97;58.95;;;89.90;2176.00;;;;;;4961871;28;20124;-77
2021/01/18 04:39:17;;;;;;;70.13;39.78;;;90.00;2176.00;;;;;;4962583;28;20033;-76
2021/01/18 04:41:44;;;;;;;77.38;43.88;;;90.20;2176.00;;;;;;4962463;28;20022;-76
2021/01/18 04:44:16;;;;;;;100.40;51.40;;;90.30;2176.00;;;;;;4961479;28;20498;-77
2021/01/18 04:46:44;;;;;;;124.03;58.78;;;90.30;2176.00;;;;;;4961340;28;20031;-77
2021/01/18 04:49:11;;;;;;;105.30;56.75;;;90.30;2176.00;;;;;;4962331;28;20118;-77
2021/01/18 04:51:50;;;;;;;102.93;54.42;;;90.30;2176.00;;;;;;4961682;28;20029;-76
2021/01/18 04:54:18;;;;;;;95.20;51.97;;;90.10;2176.00;;;;;;4962140;28;20035;-76
2021/01/18 04:57:11;;;;;;;116.15;57.70;;;90.00;2176.00;;;;;;4962553;28;20126;-76
2021/01/18 04:59:46;;;;;;;114.72;58.63;;;90.10;2176.00;;;;;;4962423;28;20027;-77
2021/01/18 05:02:21;;;;;;;107.03;54.47;;;90.20;2176.00;;;;;;4962677;28;20035;-76
2021/01/18 05:04:50;;;;;;;115.13;57.60;;;90.20;2176.00;;;;;;4963570;28;20046;-79
2021/01/18 05:07:37;;;;;;;111.03;55.85;;;90.20;2176.00;;;;;;4964588;28;20041;-77
2021/01/18 05:10:05;;;;;;;121.45;62.90;;;90.40;2176.00;;;;;;4962567;28;20055;-77
2021/01/18 05:12:34;;;;;;;149.63;78.28;;;90.50;2176.00;;;;;;4961104;28;20051;-78
2021/01/18 05:15:03;;;;;;;182.55;92.45;;;115.20;2176.00;;;;;;4961762;28;20031;-75
2021/01/18 05:17:41;;;;;;;145.57;82.50;;;115.20;2176.00;;;;;;4959971;28;20130;-77
2021/01/18 05:20:09;;;;;;;89.50;48.55;;;90.50;2176.00;;;;;;4961408;28;20030;-76
2021/01/18 05:22:35;;;;;;;72.25;40.92;;;115.20;2176.00;;;;;;4961607;28;20426;-76
2021/01/18 05:25:05;;;;;;;84.63;43.78;;;115.20;2176.00;;;;;;4961680;28;20023;-75
2021/01/18 05:27:31;;;;;;;81.50;44.22;;;115.40;2176.00;;;;;;4964032;28;20027;-76
2021/01/18 05:29:57;;;;;;;83.68;44.20;;;115.50;2176.00;;;;;;4959296;28;20082;-76
2021/01/18 05:32:24;;;;;;;90.35;44.15;;;115.60;2176.00;;;;;;4961431;28;20027;-75
2021/01/18 05:35:09;;;;;;;254.02;100.85;;;115.60;2176.00;;;;;;4959964;28;20030;-77
2021/01/18 05:37:35;;;;;;;159.48;67.22;;;115.60;2176.00;;;;;;4976687;28;20035;-77
2021/01/18 05:40:19;;;;;;;118.00;48.70;;;115.70;2176.00;;;;;;4961944;28;20435;-77
2021/01/18 05:42:45;;;;;;;127.93;63.00;;;115.90;2176.00;;;;;;4962374;28;20518;-76
2021/01/18 05:45:11;;;;;;;203.82;97.68;;;116.00;2176.00;;;;;;4962035;28;20459;-77
2021/01/18 05:47:42;;;;;;;153.43;79.05;;;141.00;2176.00;;;;;;4965433;28;20035;-78
2021/01/18 05:50:08;;;;;;;252.80;126.82;;;115.80;2176.00;;;;;;4988981;28;20027;-78
2021/01/18 05:52:34;;;;;;;163.65;82.18;;;141.00;2176.00;;;;;;4971327;28;20026;-79
2021/01/18 05:55:16;;;;;;;136.00;69.30;;;141.00;2176.00;;;;;;4966262;28;20037;-77
2021/01/18 05:57:52;;;;;;;252.07;123.95;;;141.00;2176.00;;;;;;4963255;28;20038;-76
2021/01/18 06:00:29;;;;;;;233.65;113.40;;;141.10;2176.00;;;;;;4963104;28;20042;-75
2021/01/18 06:02:55;;;;;;;253.98;120.30;;;141.00;2176.00;;;;;;4963611;28;20118;-77
2021/01/18 06:05:25;;;;;;;343.20;161.85;;;141.10;2176.00;;;;;;4964103;28;20037;-77
2021/01/18 06:07:52;;;;;;;403.95;196.05;;;116.10;2176.00;;;;;;4964532;28;20489;-77
2021/01/18 06:10:18;;;;;;;468.70;214.80;;;116.10;2176.00;;;;;;4963518;28;20045;-76
2021/01/18 06:12:45;;;;;;;240.60;125.97;;;116.00;2176.00;;;;;;4963271;28;20163;-76
2021/01/18 06:15:15;;;;;;;288.25;152.93;;;116.00;2176.00;;;;;;4964294;28;20387;-78
2021/01/18 06:17:45;;;;;;;182.57;100.07;;;115.80;2176.00;;;;;;4964160;28;20042;-78
2021/01/18 06:20:19;;;;;;;208.88;119.07;;;115.80;2176.00;;;;;;4964490;28;20038;-77
2021/01/18 06:22:53;;;;;;;179.05;90.32;;;116.00;2176.00;;;;;;4964048;28;20023;-77
2021/01/18 06:25:20;;;;;;;251.40;135.82;;;115.90;2176.00;;;;;;4963593;28;20023;-77
2021/01/18 06:27:46;;;;;;;182.07;101.00;;;115.90;2176.00;;;;;;4964906;28;20393;-78
2021/01/18 06:30:24;;;;;;;193.10;103.13;;;115.40;2176.00;;;;;;4964057;28;20166;-78
2021/01/18 06:32:55;;;;;;;164.93;83.32;;;116.10;2176.00;;;;;;4964318;28;20378;-77
2021/01/18 06:35:32;;;;;;;248.25;115.80;;;116.00;2176.00;;;;;;4963341;28;20034;-77
2021/01/18 06:38:06;;;;;;;168.93;80.90;;;140.90;2176.00;;;;;;4963602;28;20041;-78
2021/01/18 06:40:35;;;;;;;159.18;86.63;;;140.90;2176.00;;;;;;4962486;28;20031;-77
2021/01/18 06:43:02;;;;;;;212.65;103.55;;;116.10;2176.00;;;;;;4981027;28;20351;-76
2021/01/18 06:45:39;;;;;;;223.80;124.57;;;116.10;2176.00;;;;;;4964133;28;20471;-77
2021/01/18 06:48:07;;;;;;;236.88;113.63;;;116.10;2176.00;;;;;;4964659;28;20035;-77
2021/01/18 06:50:38;;;;;;;213.65;108.40;;;140.80;2176.00;;;;;;4963796;28;20059;-77
2021/01/18 06:53:10;;;;;;;170.15;80.88;;;140.80;2176.00;;;;;;4964946;28;20031;-77
2021/01/18 06:55:44;;;;;;;167.60;92.25;;;141.00;2176.00;;;;;;4962166;28;20058;-78
2021/01/18 06:58:50;;;;;;;185.00;102.28;;;140.80;2176.00;;;;;;4967440;28;20027;-77
2021/01/18 07:01:30;;;;;;;219.13;123.50;;;116.00;2176.00;;;;;;4955241;28;20034;-78
2021/01/18 07:04:17;;;;;;;259.42;123.57;;;115.90;2176.00;;;;;;4963725;28;20027;-76
2021/01/18 07:06:47;;;;;;;272.10;136.90;;;115.70;2176.00;;;;;;4963311;28;20033;-76
2021/01/18 07:09:15;;;;;;;305.95;145.23;;;115.70;2176.00;;;;;;4963247;28;20027;-76
2021/01/18 07:11:41;;;;;;;254.23;125.82;;;115.60;2176.00;;;;;;4962908;28;20114;-78
2021/01/18 07:14:13;;;;;;;426.92;219.57;;;115.60;2176.00;;;;;;4963665;28;20093;-77
2021/01/18 07:16:40;;;;;;;222.10;118.07;;;115.70;2176.00;;;;;;4964482;28;20034;-78
2021/01/18 07:19:10;;;;;;;480.48;227.02;;;115.30;2176.00;;;;;;4963630;28;20026;-77
2021/01/18 07:21:47;;;;;;;921.40;451.50;;;115.40;2176.00;;;;;;4964288;28;20113;-77
2021/01/18 07:24:15;;;;;;;821.53;430.35;;;115.60;2176.00;;;;;;4962422;28;20034;-77
2021/01/18 07:26:56;;;;;;;527.78;278.58;;;115.70;2176.00;;;;;;4962429;28;20030;-77
2021/01/18 07:29:24;;;;;;;328.35;179.80;;;115.50;2176.00;;;;;;4962289;28;20042;-77
2021/01/18 07:31:56;;;;;;;411.70;228.77;;;115.20;2176.00;;;;;;4963917;28;20027;-76
2021/01/18 07:34:24;;;;;;;408.05;235.88;;;115.40;2176.00;;;;;;4962227;28;20365;-77
2021/01/18 07:36:51;;;;;;;426.45;230.50;;;90.30;2176.00;;;;;;4963832;28;20081;-77
2021/01/18 07:39:27;;;;;;;537.85;299.67;;;90.40;2176.00;;;;;;4964155;28;20058;-77
2021/01/18 07:41:53;;;;;;;429.35;243.02;;;90.40;2176.00;;;;;;4981164;28;20099;-77
2021/01/18 07:44:45;;;;;;;493.77;297.08;;;90.40;2176.00;;;;;;4963124;28;20034;-76
2021/01/18 07:47:13;;;;;;;459.10;271.55;;;115.20;2176.00;;;;;;4964897;28;20093;-76
2021/01/18 07:49:43;;;;;;;341.45;198.75;;;90.50;2176.00;;;;;;4981501;28;20026;-76
2021/01/18 07:52:27;;;;;;;354.80;209.90;;;90.50;2176.00;;;;;;4964110;28;20030;-77
2021/01/18 07:54:54;;;;;;;367.30;208.77;;;115.20;2176.00;;;;;;4965370;28;20158;-77
2021/01/18 07:57:23;;;;;;;307.33;174.38;;;90.50;2176.00;;;;;;4965008;28;20030;-77
2021/01/18 07:59:49;;;;;;;307.92;171.45;;;90.50;2176.00;;;;;;4965247;28;20411;-76
2021/01/18 08:02:24;;;;;;;248.38;141.20;;;90.30;2176.00;;;;;;4965591;28;20031;-78
2021/01/18 08:04:50;;;;;;;292.63;167.32;;;115.20;2176.00;;;;;;4964289;28;20030;-78
2021/01/18 08:07:16;;;;;;;284.33;165.50;;;90.50;2176.00;;;;;;4963983;28;20033;-76
2021/01/18 08:09:41;;;;;;;327.27;188.15;;;90.50;2176.00;;;;;;4963436;28;20113;-77
2021/01/18 08:12:33;;;;;;;330.05;216.38;;;90.30;2176.00;;;;;;4963805;28;20061;-78
2021/01/18 08:15:09;;;;;;;384.02;222.85;;;90.20;2176.00;;;;;;4964474;28;20364;-76
2021/01/18 08:17:35;;;;;;;310.83;172.82;;;90.10;2176.00;;;;;;4964296;28;20034;-77
2021/01/18 08:20:16;;;;;;;266.95;153.07;;;89.90;2176.00;;;;;;4964583;28;20027;-77
2021/01/18 08:22:42;;;;;;;268.70;157.13;;;89.70;2176.00;;;;;;4967630;28;20034;-77
2021/01/18 08:25:09;;;;;;;249.35;140.48;;;64.50;2201.60;;;;;;4970476;28;20034;-77
2021/01/18 08:27:36;;;;;;;256.25;143.43;;;89.60;2201.60;;;;;;4968808;28;20510;-78
2021/01/18 08:30:22;;;;;;;234.95;136.10;;;89.60;2201.60;;;;;;4965678;28;20038;-78
2021/01/18 08:32:56;;;;;;;238.93;141.88;;;64.90;2201.60;;;;;;4945851;28;20035;-77
2021/01/18 08:35:31;;;;;;;217.93;127.28;;;64.70;2201.60;;;;;;4941521;29;20058;-77
2021/01/18 08:38:07;;;;;;;239.50;154.02;;;64.40;2201.60;;;;;;4943261;29;20119;-77
2021/01/18 08:40:37;;;;;;;184.48;113.95;;;64.40;2201.60;;;;;;4943588;29;20490;-77
2021/01/18 08:43:04;;;;;;;169.80;107.55;;;64.30;2201.60;;;;;;4944138;29;20527;-77
2021/01/18 08:45:34;;;;;;;146.65;90.50;;;64.30;2201.60;;;;;;4943302;29;20090;-77
2021/01/18 08:48:01;;;;;;;108.93;70.63;;;64.20;2201.60;;;;;;4950524;29;20039;-76
2021/01/18 08:50:28;;;;;;;99.82;62.78;;;64.20;2201.60;;;;;;4949123;29;20023;-77
2021/01/18 08:52:56;;;;;;;98.55;57.40;;;64.10;2201.60;;;;;;4943863;29;20028;-76
2021/01/18 08:55:28;;;;;;;107.38;73.32;;;39.30;2201.60;;;;;;4943075;28;20027;-78
2021/01/18 08:58:29;;;;;;;110.00;64.78;;;39.20;2201.60;;;;;;4958054;28;20530;-77
2021/01/18 09:00:58;;;;;;;115.50;66.45;;;39.20;2201.60;;;;;;4960063;28;20114;-77
2021/01/18 09:03:24;;;;;;;104.95;66.30;;;39.10;2201.60;;;;;;4965077;28;20023;-77
2021/01/18 09:05:55;;;;;;;93.75;55.13;;;39.10;2201.60;;;;;;4965079;28;20113;-78
2021/01/18 09:08:23;;;;;;;80.00;55.85;;;38.90;2201.60;;;;;;4962774;28;20058;-76
2021/01/18 09:11:09;;;;;;;78.43;49.60;;;38.90;2176.00;;;;;;4962226;28;20458;-78
2021/01/18 09:13:38;;;;;;;88.90;51.80;;;38.90;2176.00;;;;;;4960507;28;20074;-77
2021/01/18 09:16:06;;;;;;;109.22;73.40;;;38.80;2201.60;;;;;;4937301;28;20031;-77
2021/01/18 09:18:33;;;;;;;101.40;59.20;;;39.10;2176.00;;;;;;4973530;28;20023;-77
2021/01/18 09:21:00;;;;;;;103.38;58.47;;;38.90;2176.00;;;;;;4977459;28;20031;-77
2021/01/18 09:23:26;;;;;;;134.43;87.18;;;38.80;2201.60;;;;;;4984529;28;20027;-78
2021/01/18 09:26:07;;;;;;;139.52;86.00;;;38.70;2176.00;;;;;;4969854;28;20037;-80
2021/01/18 09:28:34;;;;;;;132.50;76.88;;;38.70;2176.00;;;;;;4968935;28;20035;-76
2021/01/18 09:31:13;;;;;;;80.75;47.38;;;38.80;2150.40;;;;;;4966440;28;20030;-76
2021/01/18 09:33:40;;;;;;;85.43;56.00;;;38.80;2176.00;;;;;;4960544;29;20069;-77
2021/01/18 09:36:13;;;;;;;93.47;56.85;;;38.80;2176.00;;;;;;4949427;29;20416;-76
2021/01/18 09:38:41;;;;;;;128.48;82.72;;;38.90;2150.40;;;;;;4953538;28;20129;-77
2021/01/18 09:41:07;;;;;;;185.30;100.45;;;38.80;2176.00;;;;;;4961227;28;20035;-76
2021/01/18 09:43:33;;;;;;;110.38;71.90;;;38.70;2150.40;;;;;;4966006;28;20041;-77
2021/01/18 09:46:01;;;;;;;99.95;65.40;;;38.50;2150.40;;;;;;4967193;28;20026;-77
2021/01/18 09:48:27;;;;;;;76.90;48.75;;;13.60;2124.80;;;;;;4945455;28;20034;-76
2021/01/18 09:50:58;;;;;;;101.05;71.22;;;13.30;2099.20;;;;;;4953225;28;20034;-76
2021/01/18 09:53:25;;;;;;;91.60;56.83;;;0.10;2073.60;;;;;;4961724;28;20035;-75
2021/01/18 09:55:52;;;;;;;90.32;66.13;;;13.10;2048.00;;;;;;4978777;28;20034;-75
2021/01/18 09:58:37;;;;;;;80.15;48.88;;;13.00;2048.00;;;;;;4962930;28;20041;-76
2021/01/18 10:01:17;;;;;;;58.85;36.40;;;13.10;2048.00;;;;;;4963410;28;20157;-76
2021/01/18 10:03:58;;;;;;;58.92;34.00;;;13.20;1996.80;;;;;;4964099;28;20042;-76
2021/01/18 10:06:27;;;;;;;86.30;46.83;;;13.30;2022.40;;;;;;4963677;28;20035;-76
2021/01/18 10:09:01;;;;;;;109.13;59.22;;;0.10;1971.20;;;;;;4964492;28;20482;-76
2021/01/18 10:11:44;;;;;;;100.68;52.03;;;0.00;1996.80;;;;;;4984374;28;20027;-77
2021/01/18 10:14:20;;;;;;;119.55;62.47;;;13.00;1971.20;;;;;;4967928;28;20117;-78
2021/01/18 10:17:16;;;;;;;66.47;35.45;;;13.20;1971.20;;;;;;4986874;28;20045;-77
2021/01/18 10:19:42;;;;;;;55.35;35.33;;;13.20;1945.60;;;;;;4967925;28;20549;-78
2021/01/18 10:22:19;;;;;;;43.40;27.13;;;13.30;1996.80;;;;;;4986351;28;20034;-77
2021/01/18 10:24:55;;;;;;;83.18;51.20;;;13.20;1971.20;;;;;;4970570;28;20483;-77
2021/01/18 10:27:26;;;;;;;65.22;41.83;;;13.00;1945.60;;;;;;4969876;28;20031;-77
2021/01/18 10:30:15;;;;;;;45.28;27.33;;;13.00;1920.00;;;;;;4968644;28;20030;-77
2021/01/18 10:32:42;;;;;;;53.72;33.28;;;13.00;1971.20;;;;;;4966969;28;20027;-78
2021/01/18 10:35:20;;;;;;;40.47;26.65;;;0.00;1971.20;;;;;;4965410;28;20474;-78
2021/01/18 10:37:46;;;;;;;46.10;26.88;;;0.10;1894.40;;;;;;4963938;28;20034;-78
2021/01/18 10:40:12;;;;;;;43.55;21.35;;;0.00;1920.00;;;;;;4964435;28;20031;-78
2021/01/18 10:42:49;;;;;;;27.75;14.43;;;13.00;1843.20;;;;;;4968288;28;20030;-78
2021/01/18 10:45:17;;;;;;;47.05;27.33;;;13.10;1817.60;;;;;;4987593;28;20356;-78
2021/01/18 10:47:53;;;;;;;56.00;29.48;;;13.00;1868.80;;;;;;4985645;28;20039;-77
2021/01/18 10:50:24;;;;;;;118.97;61.10;;;13.00;1868.80;;;;;;4965776;28;20038;-77
2021/01/18 10:52:50;;;;;;;27.75;18.27;;;13.00;1817.60;;;;;;4965900;28;20023;-77
2021/01/18 10:55:17;;;;;;;63.50;40.13;;;13.00;1792.00;;;;;;4966284;28;20386;-78
2021/01/18 10:57:45;;;;;;;62.03;39.65;;;12.90;1843.20;;;;;;4966437;28;20073;-78
2021/01/18 11:00:16;;;;;;;32.97;21.63;;;0.10;1868.80;;;;;;4966821;28;20118;-77
2021/01/18 11:03:03;;;;;;;41.17;22.65;;;0.10;1792.00;;;;;;4965994;28;20034;-77
2021/01/18 11:05:36;;;;;;;43.40;22.27;;;0.10;1715.20;;;;;;4965576;28;20034;-78
2021/01/18 11:08:07;;;;;;;28.95;15.75;;;0.10;1740.80;;;;;;4967575;28;20026;-77
2021/01/18 11:10:37;;;;;;;44.58;22.20;;;0.10;1766.40;;;;;;4985122;28;20031;-78
2021/01/18 11:13:09;;;;;;;74.43;30.73;;;0.20;1766.40;;;;;;4968328;28;20083;-78
2021/01/18 11:15:44;;;;;;;28.55;14.25;;;0.20;1740.80;;;;;;4969531;28;20098;-78
2021/01/18 11:18:12;;;;;;;32.35;17.40;;;0.30;1664.00;;;;;;4970230;28;20031;-78
2021/01/18 11:20:39;;;;;;;28.88;18.35;;;0.30;1740.80;;;;;;4987538;28;20027;-78
2021/01/18 11:23:12;;;;;;;33.00;21.25;;;0.40;1689.60;;;;;;4954322;28;20089;-78
2021/01/18 11:25:38;;;;;;;38.83;21.02;;;0.70;1664.00;;;;;;4967297;28;20078;-78
2021/01/18 11:28:15;;;;;;;20.60;12.68;;;25.70;1689.60;;;;;;4980220;28;20118;-78
2021/01/18 11:30:43;;;;;;;20.92;13.40;;;25.80;1587.20;;;;;;4960039;28;20081;-78
2021/01/18 11:33:10;;;;;;;22.77;13.55;;;0.70;1587.20;;;;;;4968597;28;20019;-77
2021/01/18 11:35:42;;;;;;;30.08;17.20;;;25.60;1664.00;;;;;;4984649;28;20075;-79
2021/01/18 11:38:14;;;;;;;20.50;13.43;;;25.90;1561.60;;;;;;4946266;28;20031;-80
2021/01/18 11:41:04;;;;;;;42.38;24.98;;;26.00;1561.60;;;;;;4963054;28;20077;-79
2021/01/18 11:43:37;;;;;;;29.70;18.33;;;26.20;1536.00;;;;;;4975410;28;20034;-78
2021/01/18 11:46:04;;;;;;;18.70;12.63;;;26.50;1561.60;;;;;;4959181;28;20030;-79
2021/01/18 11:48:33;;;;;;;19.75;11.35;;;26.50;1536.00;;;;;;4942526;28;20383;-81
2021/01/18 11:50:59;;;;;;;19.42;13.65;;;26.10;1510.40;;;;;;4927300;28;20035;-78
2021/01/18 11:53:24;;;;;;;20.38;11.80;;;25.90;1510.40;;;;;;4947811;28;20026;-80
2021/01/18 11:55:50;;;;;;;20.90;12.05;;;25.70;1612.80;;;;;;4949746;28;20395;-77
2021/01/18 11:58:16;;;;;;;24.15;14.75;;;26.00;1536.00;;;;;;4962484;28;20059;-78
2021/01/18 12:00:43;;;;;;;25.15;16.52;;;25.80;1612.80;;;;;;4960805;28;20026;-78
2021/01/18 12:03:09;;;;;;;34.38;20.83;;;25.80;1587.20;;;;;;4959894;28;20110;-79
2021/01/18 12:05:35;;;;;;;33.30;22.92;;;26.10;1587.20;;;;;;4957562;28;20109;-78
2021/01/18 12:08:03;;;;;;;25.77;15.95;;;25.90;1536.00;;;;;;4957983;28;20034;-78
2021/01/18 12:10:34;;;;;;;74.32;61.05;;;25.70;1561.60;;;;;;4958705;28;20390;-79
2021/01/18 12:13:03;;;;;;;32.00;23.75;;;0.80;1638.40;;;;;;4959736;28;20046;-77
2021/01/18 12:15:33;;;;;;;21.77;14.23;;;0.60;1638.40;;;;;;4974755;28;20031;-76
2021/01/18 12:17:59;;;;;;;22.08;14.20;;;0.70;1638.40;;;;;;4959826;29;20030;-78
2021/01/18 12:20:25;;;;;;;22.10;14.27;;;0.60;1638.40;;;;;;4940445;29;20023;-77